createdAt,value
2022-09-03T00:00:58.578Z,17.66
2022-09-03T00:01:58.615Z,17.66
2022-09-03T00:02:58.621Z,17.66
2022-09-03T00:03:58.580Z,17.64
2022-09-03T00:04:58.533Z,17.64
2022-09-03T00:05:58.532Z,17.63
2022-09-03T00:06:58.511Z,17.63
2022-09-03T00:07:58.553Z,17.64
2022-09-03T00:08:58.501Z,17.64
2022-09-03T00:09:58.485Z,17.62
2022-09-03T00:10:58.473Z,17.59
2022-09-03T00:11:58.475Z,17.59
2022-09-03T00:12:58.464Z,17.58
2022-09-03T00:13:58.532Z,17.56
2022-09-03T00:14:58.425Z,17.54
2022-09-03T00:15:58.455Z,17.52
2022-09-03T00:16:58.417Z,17.51
2022-09-03T00:17:58.415Z,17.51
2022-09-03T00:18:58.385Z,17.51
2022-09-03T00:19:58.384Z,17.48
2022-09-03T00:20:58.366Z,17.48
2022-09-03T00:21:58.358Z,17.46
2022-09-03T00:22:58.377Z,17.44
2022-09-03T00:23:58.423Z,17.43
2022-09-03T00:24:58.326Z,17.41
2022-09-03T00:25:58.318Z,17.40
2022-09-03T00:26:58.308Z,17.38
2022-09-03T00:27:58.301Z,17.38
2022-09-03T00:28:58.289Z,17.36
2022-09-03T00:29:58.272Z,17.36
2022-09-03T00:30:58.296Z,17.34
2022-09-03T00:31:58.256Z,17.33
2022-09-03T00:32:58.249Z,17.31
2022-09-03T00:33:58.237Z,17.30
2022-09-03T00:34:58.220Z,17.31
2022-09-03T00:35:58.219Z,17.30
2022-09-03T00:36:58.189Z,17.28
2022-09-03T00:37:58.201Z,17.26
2022-09-03T00:38:58.172Z,17.25
2022-09-03T00:39:58.221Z,17.23
2022-09-03T00:40:58.151Z,17.22
2022-09-03T00:41:58.141Z,17.21
2022-09-03T00:42:58.139Z,17.19
2022-09-03T00:43:58.122Z,17.19
2022-09-03T00:44:58.134Z,17.19
2022-09-03T00:45:58.160Z,17.18
2022-09-03T00:46:58.082Z,17.16
2022-09-03T00:47:58.098Z,17.16
2022-09-03T00:48:58.061Z,17.15
2022-09-03T00:49:58.055Z,17.15
2022-09-03T00:50:58.034Z,17.14
2022-09-03T00:51:58.044Z,17.14
2022-09-03T00:52:58.057Z,17.14
2022-09-03T00:53:58.024Z,17.14
2022-09-03T00:54:57.996Z,17.12
2022-09-03T00:55:58.006Z,17.12
2022-09-03T00:56:57.977Z,17.12
2022-09-03T00:57:57.987Z,17.12
2022-09-03T00:58:57.957Z,17.12
2022-09-03T00:59:57.956Z,17.11
2022-09-03T01:00:57.932Z,17.11
2022-09-03T01:01:58.033Z,17.11
2022-09-03T01:02:58.067Z,17.11
2022-09-03T01:03:57.897Z,17.12
2022-09-03T01:04:57.887Z,17.12
2022-09-03T01:06:01.494Z,17.12
2022-09-03T01:06:57.888Z,17.14
2022-09-03T01:07:57.999Z,17.12
2022-09-03T01:08:57.846Z,17.12
2022-09-03T01:09:57.842Z,17.12
2022-09-03T01:10:57.819Z,17.12
2022-09-03T01:11:57.818Z,17.12
2022-09-03T01:12:57.829Z,17.12
2022-09-03T01:13:57.799Z,17.12
2022-09-03T01:14:57.780Z,17.12
2022-09-03T01:15:57.838Z,17.12
2022-09-03T01:16:57.751Z,17.11
2022-09-03T01:17:57.765Z,17.11
2022-09-03T01:18:57.740Z,17.08
2022-09-03T01:19:57.732Z,17.11
2022-09-03T01:20:57.711Z,17.08
2022-09-03T01:21:57.718Z,17.07
2022-09-03T01:22:57.711Z,17.04
2022-09-03T01:23:57.682Z,17.06
2022-09-03T01:24:57.673Z,17.04
2022-09-03T01:25:57.674Z,17.04
2022-09-03T01:26:57.644Z,17.03
2022-09-03T01:27:57.644Z,17.01
2022-09-03T01:28:57.632Z,17.00
2022-09-03T01:29:57.625Z,16.98
2022-09-03T01:30:57.654Z,16.98
2022-09-03T01:31:57.601Z,16.98
2022-09-03T01:32:57.595Z,16.97
2022-09-03T01:33:57.575Z,16.96
2022-09-03T01:34:57.567Z,16.94
2022-09-03T01:35:57.556Z,16.94
2022-09-03T01:36:57.535Z,16.93
2022-09-03T01:37:57.557Z,16.93
2022-09-03T01:38:57.516Z,16.89
2022-09-03T01:39:57.538Z,16.89
2022-09-03T01:40:57.488Z,16.89
2022-09-03T01:41:57.487Z,16.86
2022-09-03T01:42:57.478Z,16.86
2022-09-03T01:43:57.520Z,16.86
2022-09-03T01:44:57.448Z,16.85
2022-09-03T01:45:57.474Z,16.83
2022-09-03T01:46:57.448Z,16.83
2022-09-03T01:47:57.419Z,16.82
2022-09-03T01:48:57.439Z,16.82
2022-09-03T01:49:57.397Z,16.81
2022-09-03T01:50:57.379Z,16.79
2022-09-03T01:51:57.386Z,16.78
2022-09-03T01:52:57.371Z,16.78
2022-09-03T01:53:57.382Z,16.76
2022-09-03T01:54:57.340Z,16.76
2022-09-03T01:55:57.329Z,16.75
2022-09-03T01:56:57.312Z,16.73
2022-09-03T01:57:57.313Z,16.71
2022-09-03T01:58:57.291Z,16.70
2022-09-03T01:59:57.355Z,16.70
2022-09-03T02:00:57.277Z,16.67
2022-09-03T02:01:57.322Z,16.67
2022-09-03T02:02:57.313Z,16.66
2022-09-03T02:03:57.233Z,16.64
2022-09-03T02:04:57.222Z,16.63
2022-09-03T02:05:57.214Z,16.63
2022-09-03T02:06:57.203Z,16.61
2022-09-03T02:07:57.321Z,16.60
2022-09-03T02:08:57.196Z,16.61
2022-09-03T02:09:57.173Z,16.58
2022-09-03T02:10:57.164Z,16.57
2022-09-03T02:11:57.153Z,16.56
2022-09-03T02:12:57.144Z,16.56
2022-09-03T02:13:57.125Z,16.53
2022-09-03T02:14:57.137Z,16.52
2022-09-03T02:15:57.246Z,16.52
2022-09-03T02:16:57.096Z,16.49
2022-09-03T02:17:57.096Z,16.49
2022-09-03T02:18:57.175Z,16.48
2022-09-03T02:19:57.058Z,16.48
2022-09-03T02:20:57.047Z,16.46
2022-09-03T02:21:57.027Z,16.43
2022-09-03T02:22:57.042Z,16.42
2022-09-03T02:23:57.008Z,16.41
2022-09-03T02:24:56.998Z,16.39
2022-09-03T02:25:56.988Z,16.38
2022-09-03T02:26:56.990Z,16.38
2022-09-03T02:27:56.969Z,16.34
2022-09-03T02:28:56.959Z,16.34
2022-09-03T02:29:56.957Z,16.33
2022-09-03T02:30:57.083Z,16.31
2022-09-03T02:31:56.931Z,16.31
2022-09-03T02:32:56.952Z,16.28
2022-09-03T02:33:57.023Z,16.28
2022-09-03T02:34:56.900Z,16.25
2022-09-03T02:35:56.884Z,16.27
2022-09-03T02:36:56.875Z,16.25
2022-09-03T02:37:56.873Z,16.24
2022-09-03T02:38:56.843Z,16.24
2022-09-03T02:39:56.899Z,16.23
2022-09-03T02:40:56.822Z,16.23
2022-09-03T02:41:56.822Z,16.21
2022-09-03T02:42:56.819Z,16.20
2022-09-03T02:43:56.801Z,16.17
2022-09-03T02:44:56.784Z,16.17
2022-09-03T02:45:56.811Z,16.17
2022-09-03T02:46:56.765Z,16.14
2022-09-03T02:47:56.755Z,16.14
2022-09-03T02:48:56.743Z,16.14
2022-09-03T02:49:56.733Z,16.12
2022-09-03T02:50:56.726Z,16.12
2022-09-03T02:51:56.695Z,16.11
2022-09-03T02:52:56.707Z,16.11
2022-09-03T02:53:56.696Z,16.11
2022-09-03T02:54:56.666Z,16.09
2022-09-03T02:55:56.667Z,16.09
2022-09-03T02:56:56.649Z,16.08
2022-09-03T02:57:56.646Z,16.08
2022-09-03T02:58:56.648Z,16.08
2022-09-03T02:59:56.617Z,16.08
2022-09-03T03:00:56.616Z,16.08
2022-09-03T03:01:56.628Z,16.07
2022-09-03T03:02:56.606Z,16.05
2022-09-03T03:03:56.567Z,16.05
2022-09-03T03:04:56.560Z,16.05
2022-09-03T03:05:56.638Z,16.05
2022-09-03T03:06:56.531Z,16.05
2022-09-03T03:07:56.542Z,16.05
2022-09-03T03:08:56.516Z,16.04
2022-09-03T03:09:56.680Z,16.04
2022-09-03T03:10:56.491Z,16.04
2022-09-03T03:11:56.508Z,16.02
2022-09-03T03:12:56.489Z,16.04
2022-09-03T03:13:56.478Z,16.02
2022-09-03T03:14:56.443Z,16.02
2022-09-03T03:15:56.442Z,16.01
2022-09-03T03:16:56.493Z,16.01
2022-09-03T03:17:56.424Z,16.01
2022-09-03T03:18:56.391Z,16.00
2022-09-03T03:19:56.404Z,15.97
2022-09-03T03:20:56.379Z,15.96
2022-09-03T03:21:56.366Z,15.96
2022-09-03T03:22:56.373Z,15.96
2022-09-03T03:23:56.352Z,15.93
2022-09-03T03:24:56.333Z,15.94
2022-09-03T03:25:56.323Z,15.93
2022-09-03T03:26:56.313Z,15.93
2022-09-03T03:27:56.306Z,15.92
2022-09-03T03:28:56.286Z,15.92
2022-09-03T03:29:56.286Z,15.90
2022-09-03T03:30:56.335Z,15.92
2022-09-03T03:31:56.265Z,15.92
2022-09-03T03:32:56.255Z,15.92
2022-09-03T03:33:56.236Z,15.92
2022-09-03T03:34:56.234Z,15.93
2022-09-03T03:35:56.226Z,15.94
2022-09-03T03:36:56.197Z,15.97
2022-09-03T03:37:56.205Z,16.00
2022-09-03T03:38:56.185Z,16.01
2022-09-03T03:39:56.236Z,16.02
2022-09-03T03:40:56.156Z,16.04
2022-09-03T03:41:56.151Z,16.05
2022-09-03T03:42:56.160Z,16.08
2022-09-03T03:43:56.126Z,16.08
2022-09-03T03:44:56.125Z,16.12
2022-09-03T03:45:56.155Z,16.14
2022-09-03T03:46:56.106Z,16.17
2022-09-03T03:47:56.127Z,16.20
2022-09-03T03:48:56.061Z,16.20
2022-09-03T03:49:56.089Z,16.21
2022-09-03T03:50:56.042Z,16.24
2022-09-03T03:51:56.057Z,16.25
2022-09-03T03:52:56.036Z,16.27
2022-09-03T03:53:56.029Z,16.28
2022-09-03T03:54:56.129Z,16.28
2022-09-03T03:55:56.059Z,16.30
2022-09-03T03:56:55.993Z,16.31
2022-09-03T03:57:55.979Z,16.34
2022-09-03T03:58:55.960Z,16.31
2022-09-03T03:59:55.948Z,16.34
2022-09-03T04:00:55.962Z,16.35
2022-09-03T04:01:55.965Z,16.34
2022-09-03T04:02:55.967Z,16.35
2022-09-03T04:03:56.270Z,16.35
2022-09-03T04:04:55.893Z,16.35
2022-09-03T04:05:55.883Z,16.35
2022-09-03T04:06:55.865Z,16.35
2022-09-03T04:07:55.871Z,16.38
2022-09-03T04:08:55.947Z,16.38
2022-09-03T04:09:55.823Z,16.35
2022-09-03T04:10:55.824Z,16.38
2022-09-03T04:11:55.824Z,16.38
2022-09-03T04:12:55.805Z,16.38
2022-09-03T04:13:55.796Z,16.38
2022-09-03T04:14:55.789Z,16.39
2022-09-03T04:15:55.775Z,16.38
2022-09-03T04:16:55.814Z,16.39
2022-09-03T04:17:55.757Z,16.38
2022-09-03T04:18:55.748Z,16.41
2022-09-03T04:19:55.727Z,16.39
2022-09-03T04:20:55.729Z,16.41
2022-09-03T04:21:55.727Z,16.39
2022-09-03T04:22:55.706Z,16.39
2022-09-03T04:23:55.697Z,16.41
2022-09-03T04:24:55.658Z,16.39
2022-09-03T04:25:55.778Z,16.39
2022-09-03T04:26:55.638Z,16.41
2022-09-03T04:27:55.648Z,16.41
2022-09-03T04:28:55.646Z,16.39
2022-09-03T04:29:55.608Z,16.39
2022-09-03T04:30:55.666Z,16.39
2022-09-03T04:31:55.689Z,16.39
2022-09-03T04:32:55.589Z,16.39
2022-09-03T04:33:55.571Z,16.39
2022-09-03T04:34:55.562Z,16.38
2022-09-03T04:35:55.569Z,16.38
2022-09-03T04:36:55.550Z,16.35
2022-09-03T04:37:55.531Z,16.34
2022-09-03T04:38:55.511Z,16.34
2022-09-03T04:39:55.621Z,16.34
2022-09-03T04:40:55.492Z,16.33
2022-09-03T04:41:55.481Z,16.33
2022-09-03T04:42:55.471Z,16.31
2022-09-03T04:43:55.466Z,16.31
2022-09-03T04:44:55.443Z,16.31
2022-09-03T04:45:55.451Z,16.31
2022-09-03T04:46:55.423Z,16.30
2022-09-03T04:47:55.430Z,16.30
2022-09-03T04:48:55.405Z,16.30
2022-09-03T04:49:55.433Z,16.30
2022-09-03T04:50:55.383Z,16.28
2022-09-03T04:51:55.373Z,16.28
2022-09-03T04:52:55.374Z,16.30
2022-09-03T04:53:55.352Z,16.30
2022-09-03T04:54:55.334Z,16.28
2022-09-03T04:55:55.326Z,16.28
2022-09-03T04:56:55.306Z,16.28
2022-09-03T04:57:55.357Z,16.31
2022-09-03T04:58:55.288Z,16.30
2022-09-03T04:59:55.286Z,16.30
2022-09-03T05:00:55.282Z,16.28
2022-09-03T05:01:55.294Z,16.30
2022-09-03T05:02:55.258Z,16.30
2022-09-03T05:03:55.241Z,16.31
2022-09-03T05:04:55.220Z,16.31
2022-09-03T05:05:55.297Z,16.31
2022-09-03T05:06:55.201Z,16.33
2022-09-03T05:07:55.208Z,16.33
2022-09-03T05:08:55.179Z,16.34
2022-09-03T05:09:55.167Z,16.35
2022-09-03T05:10:55.190Z,16.35
2022-09-03T05:11:55.140Z,16.38
2022-09-03T05:12:55.147Z,16.39
2022-09-03T05:13:55.134Z,16.41
2022-09-03T05:14:55.111Z,16.42
2022-09-03T05:15:55.093Z,16.43
2022-09-03T05:16:55.128Z,16.43
2022-09-03T05:17:55.090Z,16.46
2022-09-03T05:18:55.078Z,16.46
2022-09-03T05:19:55.066Z,16.49
2022-09-03T05:20:55.053Z,16.49
2022-09-03T05:21:55.033Z,16.50
2022-09-03T05:22:55.043Z,16.52
2022-09-03T05:23:55.014Z,16.53
2022-09-03T05:24:55.003Z,16.53
2022-09-03T05:25:54.992Z,16.57
2022-09-03T05:26:54.987Z,16.58
2022-09-03T05:27:54.974Z,16.61
2022-09-03T05:28:54.964Z,16.61
2022-09-03T05:29:54.954Z,16.64
2022-09-03T05:30:54.944Z,16.64
2022-09-03T05:31:54.985Z,16.67
2022-09-03T05:32:54.994Z,16.68
2022-09-03T05:33:54.917Z,16.70
2022-09-03T05:34:54.904Z,16.71
2022-09-03T05:35:54.887Z,16.71
2022-09-03T05:36:54.875Z,16.76
2022-09-03T05:37:54.895Z,16.76
2022-09-03T05:38:54.858Z,16.79
2022-09-03T05:39:54.954Z,16.81
2022-09-03T05:40:54.839Z,16.82
2022-09-03T05:41:54.817Z,16.85
2022-09-03T05:42:54.827Z,16.86
2022-09-03T05:43:54.809Z,16.88
2022-09-03T05:44:54.797Z,16.91
2022-09-03T05:45:54.848Z,16.93
2022-09-03T05:46:54.809Z,16.94
2022-09-03T05:47:54.790Z,16.97
2022-09-03T05:48:54.752Z,17.00
2022-09-03T05:49:54.741Z,17.01
2022-09-03T05:50:54.736Z,17.01
2022-09-03T05:51:54.710Z,17.03
2022-09-03T05:52:54.711Z,17.06
2022-09-03T05:53:54.689Z,17.08
2022-09-03T05:54:54.694Z,17.08
2022-09-03T05:55:54.682Z,17.11
2022-09-03T05:56:54.665Z,17.14
2022-09-03T05:57:54.642Z,17.14
2022-09-03T05:58:54.634Z,17.16
2022-09-03T05:59:54.638Z,17.18
2022-09-03T06:00:54.613Z,17.21
2022-09-03T06:01:58.055Z,17.22
2022-09-03T06:02:55.787Z,17.23
2022-09-03T06:03:54.575Z,17.25
2022-09-03T06:04:54.569Z,17.28
2022-09-03T06:05:54.548Z,17.30
2022-09-03T06:06:54.546Z,17.33
2022-09-03T06:07:54.566Z,17.36
2022-09-03T06:08:54.544Z,17.37
2022-09-03T06:09:54.497Z,17.41
2022-09-03T06:10:54.513Z,17.44
2022-09-03T06:11:54.485Z,17.46
2022-09-03T06:12:54.487Z,17.51
2022-09-03T06:13:54.468Z,17.54
2022-09-03T06:14:54.457Z,17.56
2022-09-03T06:15:54.442Z,17.59
2022-09-03T06:16:54.492Z,17.66
2022-09-03T06:17:54.449Z,17.70
2022-09-03T06:18:54.420Z,17.72
2022-09-03T06:19:54.519Z,17.72
2022-09-03T06:20:54.388Z,17.77
2022-09-03T06:21:54.371Z,17.78
2022-09-03T06:22:54.381Z,17.81
2022-09-03T06:23:54.350Z,17.82
2022-09-03T06:24:54.340Z,17.86
2022-09-03T06:25:54.331Z,17.86
2022-09-03T06:26:54.324Z,17.87
2022-09-03T06:27:54.311Z,17.90
2022-09-03T06:28:54.320Z,17.92
2022-09-03T06:29:54.318Z,17.93
2022-09-03T06:30:54.311Z,17.97
2022-09-03T06:31:54.378Z,17.97
2022-09-03T06:32:54.271Z,18.00
2022-09-03T06:33:54.252Z,18.03
2022-09-03T06:34:54.235Z,18.07
2022-09-03T06:35:54.226Z,18.08
2022-09-03T06:36:54.812Z,18.12
2022-09-03T06:37:54.203Z,18.21
2022-09-03T06:38:54.237Z,18.30
2022-09-03T06:39:54.233Z,18.42
2022-09-03T06:40:54.173Z,18.57
2022-09-03T06:41:54.156Z,18.70
2022-09-03T06:42:54.165Z,18.90
2022-09-03T06:43:54.137Z,19.14
2022-09-03T06:44:54.135Z,19.36
2022-09-03T06:45:54.142Z,19.50
2022-09-03T06:46:54.099Z,19.58
2022-09-03T06:47:54.099Z,19.66
2022-09-03T06:48:54.079Z,19.74
2022-09-03T06:49:54.059Z,19.78
2022-09-03T06:50:54.065Z,19.87
2022-09-03T06:51:54.040Z,20.03
2022-09-03T06:52:54.049Z,20.17
2022-09-03T06:53:54.120Z,20.23
2022-09-03T06:54:54.022Z,20.17
2022-09-03T06:55:54.002Z,20.05
2022-09-03T06:56:53.991Z,19.92
2022-09-03T06:57:54.169Z,19.77
2022-09-03T06:58:53.962Z,19.62
2022-09-03T06:59:53.952Z,19.55
2022-09-03T07:00:54.090Z,19.50
2022-09-03T07:01:54.428Z,19.48
2022-09-03T07:02:53.943Z,19.46
2022-09-03T07:03:53.915Z,19.44
2022-09-03T07:04:53.903Z,19.44
2022-09-03T07:05:53.893Z,19.50
2022-09-03T07:06:53.886Z,19.56
2022-09-03T07:07:53.885Z,19.63
2022-09-03T07:08:54.097Z,19.71
2022-09-03T07:09:54.005Z,19.78
2022-09-03T07:10:53.838Z,19.88
2022-09-03T07:11:53.827Z,19.99
2022-09-03T07:12:53.818Z,20.05
2022-09-03T07:13:53.811Z,20.02
2022-09-03T07:14:53.807Z,19.99
2022-09-03T07:15:53.856Z,19.98
2022-09-03T07:16:53.779Z,19.95
2022-09-03T07:17:53.770Z,19.94
2022-09-03T07:18:53.741Z,19.87
2022-09-03T07:19:53.744Z,19.86
2022-09-03T07:20:53.829Z,19.81
2022-09-03T07:21:53.734Z,19.77
2022-09-03T07:22:53.714Z,19.74
2022-09-03T07:23:53.702Z,19.71
2022-09-03T07:24:53.683Z,19.71
2022-09-03T07:25:53.682Z,19.71
2022-09-03T07:26:53.705Z,19.73
2022-09-03T07:27:53.657Z,19.71
2022-09-03T07:28:53.643Z,19.69
2022-09-03T07:29:53.674Z,19.71
2022-09-03T07:30:53.625Z,19.69
2022-09-03T07:31:53.739Z,19.68
2022-09-03T07:32:53.604Z,19.66
2022-09-03T07:33:53.585Z,19.65
2022-09-03T07:34:53.578Z,19.61
2022-09-03T07:35:53.566Z,19.58
2022-09-03T07:36:53.595Z,19.51
2022-09-03T07:37:53.547Z,19.47
2022-09-03T07:38:53.862Z,19.41
2022-09-03T07:39:53.814Z,19.33
2022-09-03T07:40:54.598Z,19.29
2022-09-03T07:41:53.659Z,19.23
2022-09-03T07:42:55.241Z,19.19
2022-09-03T07:43:53.478Z,19.14
2022-09-03T07:44:53.499Z,19.10
2022-09-03T07:45:53.452Z,19.02
2022-09-03T07:46:53.623Z,18.95
2022-09-03T07:47:53.450Z,18.87
2022-09-03T07:48:53.431Z,18.78
2022-09-03T07:49:53.421Z,18.72
2022-09-03T07:50:53.409Z,18.62
2022-09-03T07:51:53.427Z,18.52
2022-09-03T07:52:53.377Z,18.45
2022-09-03T07:53:53.367Z,18.41
2022-09-03T07:54:53.421Z,18.37
2022-09-03T07:55:53.365Z,18.36
2022-09-03T07:56:53.335Z,18.33
2022-09-03T07:57:53.322Z,18.32
2022-09-03T07:58:53.310Z,18.30
2022-09-03T07:59:53.360Z,18.27
2022-09-03T08:00:53.318Z,18.25
2022-09-03T08:01:53.286Z,18.23
2022-09-03T08:02:53.293Z,18.21
2022-09-03T08:03:53.292Z,18.18
2022-09-03T08:04:53.250Z,18.14
2022-09-03T08:05:53.237Z,18.10
2022-09-03T08:06:53.237Z,18.08
2022-09-03T08:07:53.209Z,18.05
2022-09-03T08:08:53.218Z,18.05
2022-09-03T08:09:53.180Z,18.03
2022-09-03T08:10:53.239Z,18.00
2022-09-03T08:11:53.179Z,17.96
2022-09-03T08:12:53.299Z,17.89
2022-09-03T08:13:53.143Z,17.82
2022-09-03T08:14:53.140Z,17.74
2022-09-03T08:15:53.149Z,17.62
2022-09-03T08:16:53.128Z,17.51
2022-09-03T08:17:53.100Z,17.41
2022-09-03T08:18:53.190Z,17.33
2022-09-03T08:19:53.081Z,17.28
2022-09-03T08:20:53.150Z,17.23
2022-09-03T08:21:53.281Z,17.16
2022-09-03T08:22:53.052Z,17.12
2022-09-03T08:23:53.034Z,17.07
2022-09-03T08:24:53.023Z,17.06
2022-09-03T08:25:53.024Z,17.04
2022-09-03T08:26:53.063Z,17.03
2022-09-03T08:27:52.982Z,17.00
2022-09-03T08:28:53.165Z,17.01
2022-09-03T08:29:52.993Z,17.01
2022-09-03T08:30:53.017Z,17.03
2022-09-03T08:31:52.990Z,17.03
2022-09-03T08:32:52.937Z,17.04
2022-09-03T08:33:52.915Z,17.06
2022-09-03T08:34:52.918Z,17.11
2022-09-03T08:35:52.896Z,17.11
2022-09-03T08:36:52.906Z,17.08
2022-09-03T08:37:56.687Z,17.07
2022-09-03T08:38:52.877Z,17.06
2022-09-03T08:39:52.897Z,17.06
2022-09-03T08:40:52.857Z,17.04
2022-09-03T08:41:52.857Z,17.03
2022-09-03T08:42:52.831Z,17.00
2022-09-03T08:43:52.811Z,17.01
2022-09-03T08:44:52.818Z,17.01
2022-09-03T08:45:52.780Z,17.01
2022-09-03T08:46:52.848Z,17.01
2022-09-03T08:47:52.770Z,17.04
2022-09-03T08:48:52.760Z,17.07
2022-09-03T08:49:52.748Z,17.11
2022-09-03T08:50:52.747Z,17.15
2022-09-03T08:51:52.732Z,17.19
2022-09-03T08:52:52.733Z,17.25
2022-09-03T08:53:52.702Z,17.31
2022-09-03T08:54:52.694Z,17.38
2022-09-03T08:55:52.682Z,17.41
2022-09-03T08:56:52.699Z,17.51
2022-09-03T08:57:52.653Z,17.56
2022-09-03T08:58:52.645Z,17.59
2022-09-03T08:59:52.644Z,17.58
2022-09-03T09:00:52.664Z,17.62
2022-09-03T09:01:52.804Z,17.62
2022-09-03T09:02:52.691Z,17.64
2022-09-03T09:03:52.584Z,17.72
2022-09-03T09:04:52.585Z,17.78
2022-09-03T09:05:52.587Z,17.82
2022-09-03T09:06:52.572Z,17.86
2022-09-03T09:07:52.544Z,17.86
2022-09-03T09:08:52.565Z,17.84
2022-09-03T09:09:52.526Z,17.81
2022-09-03T09:10:52.517Z,17.78
2022-09-03T09:11:52.521Z,17.81
2022-09-03T09:12:52.520Z,17.87
2022-09-03T09:13:52.479Z,17.93
2022-09-03T09:14:53.910Z,18.00
2022-09-03T09:15:52.485Z,18.14
2022-09-03T09:16:52.459Z,18.20
2022-09-03T09:17:53.122Z,18.25
2022-09-03T09:18:52.550Z,18.30
2022-09-03T09:19:52.442Z,18.35
2022-09-03T09:20:52.459Z,18.36
2022-09-03T09:21:52.391Z,18.32
2022-09-03T09:22:52.392Z,18.32
2022-09-03T09:23:52.372Z,18.35
2022-09-03T09:24:52.373Z,18.33
2022-09-03T09:25:52.413Z,18.36
2022-09-03T09:26:52.353Z,18.41
2022-09-03T09:27:52.322Z,18.45
2022-09-03T09:28:52.322Z,18.52
2022-09-03T09:29:52.468Z,18.60
2022-09-03T09:30:52.410Z,18.72
2022-09-03T09:31:52.286Z,18.82
2022-09-03T09:32:52.275Z,18.94
2022-09-03T09:33:52.256Z,19.11
2022-09-03T09:34:52.791Z,19.23
2022-09-03T09:35:52.251Z,19.29
2022-09-03T09:36:52.247Z,19.31
2022-09-03T09:37:52.217Z,19.46
2022-09-03T09:38:52.209Z,19.65
2022-09-03T09:39:52.237Z,19.88
2022-09-03T09:40:52.190Z,20.14
2022-09-03T09:41:52.189Z,20.43
2022-09-03T09:42:52.174Z,20.67
2022-09-03T09:43:52.150Z,20.88
2022-09-03T09:44:52.183Z,21.03
2022-09-03T09:45:52.122Z,21.19
2022-09-03T09:46:54.822Z,21.32
2022-09-03T09:47:52.112Z,21.38
2022-09-03T09:48:52.103Z,21.42
2022-09-03T09:49:52.083Z,21.56
2022-09-03T09:50:52.087Z,21.80
2022-09-03T09:51:52.065Z,22.02
2022-09-03T09:52:55.131Z,22.02
2022-09-03T09:53:53.044Z,21.79
2022-09-03T09:54:52.035Z,21.58
2022-09-03T09:55:52.056Z,21.54
2022-09-03T09:56:52.048Z,21.65
2022-09-03T09:57:52.009Z,21.83
2022-09-03T09:58:52.006Z,22.06
2022-09-03T09:59:51.989Z,22.18
2022-09-03T10:00:51.981Z,22.15
2022-09-03T10:01:52.008Z,22.14
2022-09-03T10:02:52.037Z,22.24
2022-09-03T10:03:51.940Z,22.31
2022-09-03T10:04:51.939Z,22.27
2022-09-03T10:05:51.940Z,22.18
2022-09-03T10:06:51.922Z,22.05
2022-09-03T10:07:51.910Z,21.99
2022-09-03T10:08:51.953Z,22.02
2022-09-03T10:09:51.882Z,22.14
2022-09-03T10:10:51.884Z,22.24
2022-09-03T10:11:52.250Z,22.24
2022-09-03T10:12:51.855Z,22.18
2022-09-03T10:13:51.846Z,22.00
2022-09-03T10:14:51.846Z,21.80
2022-09-03T10:15:51.888Z,21.74
2022-09-03T10:16:51.827Z,21.72
2022-09-03T10:17:51.808Z,21.65
2022-09-03T10:18:51.798Z,21.71
2022-09-03T10:19:51.788Z,21.86
2022-09-03T10:20:51.801Z,22.05
2022-09-03T10:21:51.770Z,22.24
2022-09-03T10:22:57.107Z,22.27
2022-09-03T10:23:52.750Z,22.22
2022-09-03T10:24:51.738Z,22.18
2022-09-03T10:25:51.722Z,22.22
2022-09-03T10:26:51.772Z,22.22
2022-09-03T10:27:51.702Z,22.21
2022-09-03T10:28:51.695Z,22.30
2022-09-03T10:29:52.900Z,22.37
2022-09-03T10:30:51.772Z,22.42
2022-09-03T10:31:51.679Z,22.51
2022-09-03T10:32:51.656Z,22.49
2022-09-03T10:33:51.635Z,22.45
2022-09-03T10:34:51.636Z,22.37
2022-09-03T10:35:51.625Z,22.22
2022-09-03T10:36:51.625Z,22.21
2022-09-03T10:37:51.597Z,22.30
2022-09-03T10:38:51.628Z,22.30
2022-09-03T10:39:52.504Z,22.21
2022-09-03T10:40:51.570Z,22.12
2022-09-03T10:41:51.582Z,22.09
2022-09-03T10:42:51.550Z,22.12
2022-09-03T10:43:51.540Z,22.22
2022-09-03T10:44:51.532Z,22.35
2022-09-03T10:45:51.564Z,22.40
2022-09-03T10:46:51.587Z,22.45
2022-09-03T10:47:51.492Z,22.43
2022-09-03T10:48:51.486Z,22.37
2022-09-03T10:49:51.473Z,22.43
2022-09-03T10:50:51.473Z,22.58
2022-09-03T10:51:51.463Z,22.75
2022-09-03T10:52:51.473Z,22.85
2022-09-03T10:53:51.458Z,22.97
2022-09-03T10:54:51.435Z,23.05
2022-09-03T10:55:51.435Z,23.15
2022-09-03T10:56:51.435Z,23.13
2022-09-03T10:57:51.509Z,23.12
2022-09-03T10:58:51.410Z,22.97
2022-09-03T10:59:51.405Z,22.79
2022-09-03T11:00:51.389Z,22.58
2022-09-03T11:01:51.455Z,22.49
2022-09-03T11:02:51.419Z,22.54
2022-09-03T11:03:51.337Z,22.51
2022-09-03T11:04:51.320Z,22.42
2022-09-03T11:05:51.322Z,22.46
2022-09-03T11:06:51.341Z,22.55
2022-09-03T11:07:51.302Z,22.51
2022-09-03T11:08:51.292Z,22.30
2022-09-03T11:09:51.265Z,22.12
2022-09-03T11:10:51.323Z,22.14
2022-09-03T11:11:51.267Z,22.30
2022-09-03T11:12:53.005Z,22.42
2022-09-03T11:13:51.226Z,22.51
2022-09-03T11:14:51.215Z,22.57
2022-09-03T11:15:51.258Z,22.55
2022-09-03T11:16:51.256Z,22.58
2022-09-03T11:17:51.194Z,22.54
2022-09-03T11:18:51.190Z,22.58
2022-09-03T11:19:51.170Z,22.61
2022-09-03T11:20:51.149Z,22.70
2022-09-03T11:21:51.173Z,22.73
2022-09-03T11:22:51.175Z,22.80
2022-09-03T11:23:55.030Z,23.13
2022-09-03T11:24:51.117Z,23.36
2022-09-03T11:25:51.112Z,23.32
2022-09-03T11:26:51.135Z,23.27
2022-09-03T11:27:54.580Z,23.15
2022-09-03T11:28:52.076Z,23.05
2022-09-03T11:29:51.063Z,23.02
2022-09-03T11:30:51.144Z,23.13
2022-09-03T11:31:51.045Z,23.27
2022-09-03T11:32:52.978Z,23.57
2022-09-03T11:33:51.053Z,23.75
2022-09-03T11:34:51.015Z,23.83
2022-09-03T11:35:51.006Z,23.80
2022-09-03T11:36:50.996Z,23.78
2022-09-03T11:37:50.977Z,23.90
2022-09-03T11:38:50.969Z,24.00
2022-09-03T11:39:51.002Z,24.05
2022-09-03T11:40:50.949Z,24.12
2022-09-03T11:41:50.949Z,24.10
2022-09-03T11:42:50.940Z,24.12
2022-09-03T11:43:50.922Z,24.28
2022-09-03T11:44:51.354Z,24.34
2022-09-03T11:45:50.922Z,24.37
2022-09-03T11:46:50.903Z,24.40
2022-09-03T11:47:50.879Z,24.61
2022-09-03T11:48:50.873Z,24.64
2022-09-03T11:49:50.854Z,24.65
2022-09-03T11:50:50.853Z,24.62
2022-09-03T11:51:50.855Z,24.55
2022-09-03T11:52:50.835Z,24.61
2022-09-03T11:53:50.827Z,24.68
2022-09-03T11:54:50.826Z,24.87
2022-09-03T11:55:50.839Z,24.69
2022-09-03T11:56:50.806Z,24.52
2022-09-03T11:57:50.777Z,24.55
2022-09-03T11:58:50.777Z,24.57
2022-09-03T11:59:50.759Z,24.60
2022-09-03T12:00:50.759Z,24.42
2022-09-03T12:01:50.774Z,24.25
2022-09-03T12:02:54.268Z,24.28
2022-09-03T12:03:51.741Z,24.32
2022-09-03T12:04:50.824Z,24.42
2022-09-03T12:05:50.703Z,24.53
2022-09-03T12:06:50.710Z,24.55
2022-09-03T12:07:50.683Z,24.46
2022-09-03T12:08:50.683Z,24.46
2022-09-03T12:09:50.663Z,24.60
2022-09-03T12:10:50.662Z,24.76
2022-09-03T12:11:50.687Z,24.90
2022-09-03T12:12:50.664Z,25.03
2022-09-03T12:13:50.625Z,25.05
2022-09-03T12:14:50.635Z,25.06
2022-09-03T12:15:50.637Z,25.03
2022-09-03T12:16:50.627Z,24.98
2022-09-03T12:17:50.667Z,24.96
2022-09-03T12:18:50.586Z,25.10
2022-09-03T12:19:50.570Z,25.18
2022-09-03T12:20:50.569Z,25.21
2022-09-03T12:21:50.560Z,25.08
2022-09-03T12:22:50.586Z,24.96
2022-09-03T12:23:50.567Z,25.00
2022-09-03T12:24:50.525Z,24.99
2022-09-03T12:25:50.521Z,24.99
2022-09-03T12:26:50.529Z,25.08
2022-09-03T12:27:50.492Z,25.17
2022-09-03T12:28:50.492Z,25.17
2022-09-03T12:29:50.484Z,25.38
2022-09-03T12:30:50.509Z,25.45
2022-09-03T12:31:50.496Z,25.45
2022-09-03T12:32:50.470Z,25.57
2022-09-03T12:33:50.554Z,25.69
2022-09-03T12:34:50.446Z,25.76
2022-09-03T12:36:05.715Z,25.75
2022-09-03T12:36:51.446Z,25.64
2022-09-03T12:38:08.284Z,25.45
2022-09-03T12:39:10.896Z,25.46
2022-09-03T12:40:08.428Z,25.61
2022-09-03T12:41:51.485Z,25.70
2022-09-03T12:42:50.436Z,25.91
2022-09-03T12:43:50.606Z,25.95
2022-09-03T12:44:50.361Z,26.07
2022-09-03T12:47:34.124Z,26.36
2022-09-03T12:47:51.364Z,26.35
2022-09-03T12:49:30.018Z,26.29
2022-09-03T12:49:51.294Z,26.30
2022-09-03T12:50:56.776Z,26.63
2022-09-03T12:51:56.036Z,26.76
2022-09-03T12:52:51.275Z,26.76
2022-09-03T12:53:50.420Z,26.58
2022-09-03T12:54:50.596Z,26.33